sensor_id;sensor_type;location;lat;lon;timestamp;pressure;altitude;pressure_sealevel;temperature;humidity
59009;BME280;44794;42.652;23.318;2023-04-08T00:00:00;94597.31;;;5.13;79.11
59009;BME280;44794;42.652;23.318;2023-04-08T00:02:25;94599.34;;;5.06;78.39
59009;BME280;44794;42.652;23.318;2023-04-08T00:04:51;94602.09;;;5.03;78.20
59009;BME280;44794;42.652;23.318;2023-04-08T00:07:16;94604.59;;;5.05;78.01
59009;BME280;44794;42.652;23.318;2023-04-08T00:09:42;94611.72;;;5.00;78.18
59009;BME280;44794;42.652;23.318;2023-04-08T00:12:07;94601.47;;;4.83;78.42
59009;BME280;44794;42.652;23.318;2023-04-08T00:14:32;94610.09;;;4.82;78.94
59009;BME280;44794;42.652;23.318;2023-04-08T00:16:58;94607.53;;;4.82;79.38
59009;BME280;44794;42.652;23.318;2023-04-08T00:19:23;94602.66;;;4.93;79.40
59009;BME280;44794;42.652;23.318;2023-04-08T00:21:49;94604.16;;;4.97;80.01
59009;BME280;44794;42.652;23.318;2023-04-08T00:24:15;94597.19;;;4.99;80.66
59009;BME280;44794;42.652;23.318;2023-04-08T00:26:40;94594.78;;;4.96;80.61
59009;BME280;44794;42.652;23.318;2023-04-08T00:29:06;94595.63;;;4.96;81.00
59009;BME280;44794;42.652;23.318;2023-04-08T00:31:31;94596.75;;;4.91;81.21
59009;BME280;44794;42.652;23.318;2023-04-08T00:33:57;94601.16;;;4.89;81.85
59009;BME280;44794;42.652;23.318;2023-04-08T00:36:22;94601.00;;;4.92;82.23
59009;BME280;44794;42.652;23.318;2023-04-08T00:38:48;94589.28;;;4.86;82.51
59009;BME280;44794;42.652;23.318;2023-04-08T00:41:13;94593.59;;;4.86;82.67
59009;BME280;44794;42.652;23.318;2023-04-08T00:43:39;94594.34;;;4.88;82.97
59009;BME280;44794;42.652;23.318;2023-04-08T00:46:04;94603.91;;;4.86;82.27
59009;BME280;44794;42.652;23.318;2023-04-08T00:48:30;94606.47;;;4.86;82.12
59009;BME280;44794;42.652;23.318;2023-04-08T00:50:56;94595.56;;;4.81;82.45
59009;BME280;44794;42.652;23.318;2023-04-08T00:53:22;94601.38;;;4.84;82.51
59009;BME280;44794;42.652;23.318;2023-04-08T00:55:47;94599.56;;;4.86;82.79
59009;BME280;44794;42.652;23.318;2023-04-08T00:58:13;94604.81;;;4.68;83.52
59009;BME280;44794;42.652;23.318;2023-04-08T01:00:42;94606.50;;;4.69;84.31
59009;BME280;44794;42.652;23.318;2023-04-08T01:03:13;94604.00;;;4.67;85.13
59009;BME280;44794;42.652;23.318;2023-04-08T01:06:10;94605.59;;;4.70;85.66
59009;BME280;44794;42.652;23.318;2023-04-08T01:08:38;94601.34;;;4.69;86.00
59009;BME280;44794;42.652;23.318;2023-04-08T01:11:09;94615.28;;;4.65;85.71
59009;BME280;44794;42.652;23.318;2023-04-08T01:13:39;94608.41;;;4.65;85.82
59009;BME280;44794;42.652;23.318;2023-04-08T01:16:08;94607.72;;;4.62;85.40
59009;BME280;44794;42.652;23.318;2023-04-08T01:18:35;94612.03;;;4.61;85.69
59009;BME280;44794;42.652;23.318;2023-04-08T01:21:02;94613.63;;;4.64;85.91
59009;BME280;44794;42.652;23.318;2023-04-08T01:23:48;94604.56;;;4.57;86.02
59009;BME280;44794;42.652;23.318;2023-04-08T01:26:22;94611.28;;;4.59;86.27
59009;BME280;44794;42.652;23.318;2023-04-08T01:28:49;94610.00;;;4.51;85.13
59009;BME280;44794;42.652;23.318;2023-04-08T01:31:17;94613.81;;;4.44;84.13
59009;BME280;44794;42.652;23.318;2023-04-08T01:33:44;94603.66;;;4.41;83.79
59009;BME280;44794;42.652;23.318;2023-04-08T01:36:10;94615.47;;;4.45;83.72
59009;BME280;44794;42.652;23.318;2023-04-08T01:38:37;94606.69;;;4.49;84.01
59009;BME280;44794;42.652;23.318;2023-04-08T01:41:03;94606.38;;;4.55;83.59
59009;BME280;44794;42.652;23.318;2023-04-08T01:43:30;94610.38;;;4.60;83.62
59009;BME280;44794;42.652;23.318;2023-04-08T01:45:59;94610.16;;;4.65;83.31
59009;BME280;44794;42.652;23.318;2023-04-08T01:48:26;94614.31;;;4.67;83.11
59009;BME280;44794;42.652;23.318;2023-04-08T01:50:53;94610.66;;;4.71;83.05
59009;BME280;44794;42.652;23.318;2023-04-08T01:53:20;94611.31;;;4.75;82.86
59009;BME280;44794;42.652;23.318;2023-04-08T01:55:48;94613.00;;;4.76;82.34
59009;BME280;44794;42.652;23.318;2023-04-08T01:58:19;94611.25;;;4.76;82.33
59009;BME280;44794;42.652;23.318;2023-04-08T02:00:45;94617.22;;;4.77;82.42
59009;BME280;44794;42.652;23.318;2023-04-08T02:03:12;94619.78;;;4.77;82.44
59009;BME280;44794;42.652;23.318;2023-04-08T02:05:39;94629.19;;;4.78;82.37
59009;BME280;44794;42.652;23.318;2023-04-08T02:08:05;94634.31;;;4.78;82.50
59009;BME280;44794;42.652;23.318;2023-04-08T02:10:30;94632.53;;;4.80;82.49
59009;BME280;44794;42.652;23.318;2023-04-08T02:12:56;94629.94;;;4.80;82.09
59009;BME280;44794;42.652;23.318;2023-04-08T02:15:22;94637.88;;;4.75;81.08
59009;BME280;44794;42.652;23.318;2023-04-08T02:18:04;94636.03;;;4.45;82.42
59009;BME280;44794;42.652;23.318;2023-04-08T02:20:42;94632.25;;;4.52;82.66
59009;BME280;44794;42.652;23.318;2023-04-08T02:23:13;94633.28;;;4.48;83.05
59009;BME280;44794;42.652;23.318;2023-04-08T02:25:42;94630.72;;;4.48;83.08
59009;BME280;44794;42.652;23.318;2023-04-08T02:28:10;94639.47;;;4.61;82.20
59009;BME280;44794;42.652;23.318;2023-04-08T02:30:44;94635.69;;;4.68;81.82
59009;BME280;44794;42.652;23.318;2023-04-08T02:33:13;94637.34;;;4.69;81.85
59009;BME280;44794;42.652;23.318;2023-04-08T02:35:39;94636.22;;;4.57;81.87
59009;BME280;44794;42.652;23.318;2023-04-08T02:38:05;94631.94;;;4.58;82.21
59009;BME280;44794;42.652;23.318;2023-04-08T02:40:32;94631.75;;;4.61;82.66
59009;BME280;44794;42.652;23.318;2023-04-08T02:42:58;94632.53;;;4.63;83.20
59009;BME280;44794;42.652;23.318;2023-04-08T02:45:27;94631.31;;;4.70;83.73
59009;BME280;44794;42.652;23.318;2023-04-08T02:47:54;94630.91;;;4.77;83.95
59009;BME280;44794;42.652;23.318;2023-04-08T02:50:19;94631.75;;;4.78;84.10
59009;BME280;44794;42.652;23.318;2023-04-08T02:52:45;94627.28;;;4.81;84.08
59009;BME280;44794;42.652;23.318;2023-04-08T02:55:10;94627.66;;;4.74;84.60
59009;BME280;44794;42.652;23.318;2023-04-08T02:57:37;94626.41;;;4.65;85.43
59009;BME280;44794;42.652;23.318;2023-04-08T03:00:04;94624.91;;;4.61;86.16
59009;BME280;44794;42.652;23.318;2023-04-08T03:02:30;94625.56;;;4.65;86.63
59009;BME280;44794;42.652;23.318;2023-04-08T03:04:55;94627.84;;;4.71;86.79
59009;BME280;44794;42.652;23.318;2023-04-08T03:07:20;94636.44;;;4.70;86.84
59009;BME280;44794;42.652;23.318;2023-04-08T03:09:46;94629.41;;;4.73;87.03
59009;BME280;44794;42.652;23.318;2023-04-08T03:12:11;94621.47;;;4.78;87.04
59009;BME280;44794;42.652;23.318;2023-04-08T03:14:37;94621.47;;;4.78;86.97
59009;BME280;44794;42.652;23.318;2023-04-08T03:17:02;94626.75;;;4.75;86.97
59009;BME280;44794;42.652;23.318;2023-04-08T03:19:27;94626.63;;;4.78;86.64
59009;BME280;44794;42.652;23.318;2023-04-08T03:21:53;94626.63;;;4.78;86.88
59009;BME280;44794;42.652;23.318;2023-04-08T03:24:18;94623.13;;;4.79;86.87
59009;BME280;44794;42.652;23.318;2023-04-08T03:26:43;94630.75;;;4.80;86.78
59009;BME280;44794;42.652;23.318;2023-04-08T03:29:09;94630.09;;;4.77;86.86
59009;BME280;44794;42.652;23.318;2023-04-08T03:31:34;94625.69;;;4.79;87.09
59009;BME280;44794;42.652;23.318;2023-04-08T03:34:00;94629.94;;;4.80;87.20
59009;BME280;44794;42.652;23.318;2023-04-08T03:36:25;94633.25;;;4.82;87.23
59009;BME280;44794;42.652;23.318;2023-04-08T03:38:51;94632.44;;;4.81;87.18
59009;BME280;44794;42.652;23.318;2023-04-08T03:41:17;94638.25;;;4.85;87.32
59009;BME280;44794;42.652;23.318;2023-04-08T03:43:42;94629.78;;;4.83;87.07
59009;BME280;44794;42.652;23.318;2023-04-08T03:46:08;94629.28;;;4.76;87.35
59009;BME280;44794;42.652;23.318;2023-04-08T03:48:33;94627.75;;;4.72;87.47
59009;BME280;44794;42.652;23.318;2023-04-08T03:50:59;94632.22;;;4.69;88.53
59009;BME280;44794;42.652;23.318;2023-04-08T03:53:24;94629.81;;;4.66;88.77
59009;BME280;44794;42.652;23.318;2023-04-08T03:55:52;94627.38;;;4.63;89.17
59009;BME280;44794;42.652;23.318;2023-04-08T03:58:17;94617.00;;;4.64;89.40
59009;BME280;44794;42.652;23.318;2023-04-08T04:00:43;94628.38;;;4.60;89.90
59009;BME280;44794;42.652;23.318;2023-04-08T04:03:08;94628.06;;;4.66;90.10
59009;BME280;44794;42.652;23.318;2023-04-08T04:05:37;94619.44;;;4.67;90.12
59009;BME280;44794;42.652;23.318;2023-04-08T04:08:03;94621.94;;;4.69;89.98
59009;BME280;44794;42.652;23.318;2023-04-08T04:10:28;94620.94;;;4.71;89.65
59009;BME280;44794;42.652;23.318;2023-04-08T04:12:53;94626.69;;;4.76;89.59
59009;BME280;44794;42.652;23.318;2023-04-08T04:15:19;94620.63;;;4.77;89.08
59009;BME280;44794;42.652;23.318;2023-04-08T04:17:47;94630.19;;;4.75;88.81
59009;BME280;44794;42.652;23.318;2023-04-08T04:20:12;94631.53;;;4.82;89.29
59009;BME280;44794;42.652;23.318;2023-04-08T04:22:38;94632.25;;;4.84;89.29
59009;BME280;44794;42.652;23.318;2023-04-08T04:25:03;94636.50;;;4.85;88.52
59009;BME280;44794;42.652;23.318;2023-04-08T04:27:29;94639.28;;;4.81;86.84
59009;BME280;44794;42.652;23.318;2023-04-08T04:29:54;94641.88;;;4.81;86.12
59009;BME280;44794;42.652;23.318;2023-04-08T04:32:20;94649.44;;;4.84;85.06
59009;BME280;44794;42.652;23.318;2023-04-08T04:34:45;94655.50;;;4.83;84.32
59009;BME280;44794;42.652;23.318;2023-04-08T04:37:11;94650.34;;;4.83;83.68
59009;BME280;44794;42.652;23.318;2023-04-08T04:39:36;94653.81;;;4.82;83.13
59009;BME280;44794;42.652;23.318;2023-04-08T04:42:01;94657.16;;;4.84;83.23
59009;BME280;44794;42.652;23.318;2023-04-08T04:44:27;94655.03;;;4.92;82.66
59009;BME280;44794;42.652;23.318;2023-04-08T04:46:53;94660.09;;;4.93;81.77
59009;BME280;44794;42.652;23.318;2023-04-08T04:49:18;94666.00;;;4.95;81.45
59009;BME280;44794;42.652;23.318;2023-04-08T04:51:43;94654.38;;;5.04;81.28
59009;BME280;44794;42.652;23.318;2023-04-08T04:54:09;94652.72;;;5.03;81.09
59009;BME280;44794;42.652;23.318;2023-04-08T04:56:34;94668.38;;;5.15;81.38
59009;BME280;44794;42.652;23.318;2023-04-08T04:59:00;94664.56;;;5.22;80.29
59009;BME280;44794;42.652;23.318;2023-04-08T05:01:25;94669.38;;;5.28;79.32
59009;BME280;44794;42.652;23.318;2023-04-08T05:03:51;94673.25;;;5.36;78.66
59009;BME280;44794;42.652;23.318;2023-04-08T05:06:16;94669.91;;;5.50;78.07
59009;BME280;44794;42.652;23.318;2023-04-08T05:08:41;94668.44;;;5.61;77.71
59009;BME280;44794;42.652;23.318;2023-04-08T05:11:09;94670.44;;;5.72;77.18
59009;BME280;44794;42.652;23.318;2023-04-08T05:13:34;94671.72;;;5.80;76.98
59009;BME280;44794;42.652;23.318;2023-04-08T05:16:00;94670.22;;;5.92;76.77
59009;BME280;44794;42.652;23.318;2023-04-08T05:18:25;94672.78;;;6.07;76.16
59009;BME280;44794;42.652;23.318;2023-04-08T05:20:50;94670.09;;;6.24;76.12
59009;BME280;44794;42.652;23.318;2023-04-08T05:23:16;94670.97;;;6.38;75.48
59009;BME280;44794;42.652;23.318;2023-04-08T05:25:41;94663.22;;;6.54;74.11
59009;BME280;44794;42.652;23.318;2023-04-08T05:28:07;94666.47;;;6.71;72.50
59009;BME280;44794;42.652;23.318;2023-04-08T05:30:32;94671.19;;;6.78;71.92
59009;BME280;44794;42.652;23.318;2023-04-08T05:32:58;94671.97;;;6.94;71.45
59009;BME280;44794;42.652;23.318;2023-04-08T05:35:24;94679.25;;;7.02;70.93
59009;BME280;44794;42.652;23.318;2023-04-08T05:37:49;94679.63;;;7.10;70.02
59009;BME280;44794;42.652;23.318;2023-04-08T05:40:14;94675.09;;;7.13;70.79
59009;BME280;44794;42.652;23.318;2023-04-08T05:42:40;94674.38;;;7.53;70.32
59009;BME280;44794;42.652;23.318;2023-04-08T05:45:07;94676.75;;;7.70;68.44
59009;BME280;44794;42.652;23.318;2023-04-08T05:47:32;94673.06;;;7.74;66.89
59009;BME280;44794;42.652;23.318;2023-04-08T05:49:58;94678.84;;;7.91;66.15
59009;BME280;44794;42.652;23.318;2023-04-08T05:52:23;94668.09;;;8.11;64.84
59009;BME280;44794;42.652;23.318;2023-04-08T05:54:49;94674.44;;;8.33;64.08
59009;BME280;44794;42.652;23.318;2023-04-08T05:57:14;94669.09;;;8.49;62.72
59009;BME280;44794;42.652;23.318;2023-04-08T05:59:41;94672.47;;;8.63;61.61
59009;BME280;44794;42.652;23.318;2023-04-08T06:02:06;94674.53;;;8.71;61.44
59009;BME280;44794;42.652;23.318;2023-04-08T06:04:31;94666.66;;;8.60;61.03
59009;BME280;44794;42.652;23.318;2023-04-08T06:06:57;94670.53;;;8.40;60.93
59009;BME280;44794;42.652;23.318;2023-04-08T06:09:24;94673.00;;;8.16;61.61
59009;BME280;44794;42.652;23.318;2023-04-08T06:11:50;94674.59;;;8.30;61.72
59009;BME280;44794;42.652;23.318;2023-04-08T06:14:16;94673.41;;;8.36;62.11
59009;BME280;44794;42.652;23.318;2023-04-08T06:16:41;94670.13;;;8.46;61.54
59009;BME280;44794;42.652;23.318;2023-04-08T06:19:06;94669.72;;;8.52;61.27
59009;BME280;44794;42.652;23.318;2023-04-08T06:21:32;94669.34;;;8.71;61.14
59009;BME280;44794;42.652;23.318;2023-04-08T06:23:57;94677.06;;;8.97;60.37
59009;BME280;44794;42.652;23.318;2023-04-08T06:26:23;94673.63;;;8.96;59.57
59009;BME280;44794;42.652;23.318;2023-04-08T06:28:48;94670.66;;;9.15;58.62
59009;BME280;44794;42.652;23.318;2023-04-08T06:31:14;94669.94;;;9.38;57.60
59009;BME280;44794;42.652;23.318;2023-04-08T06:33:39;94666.94;;;9.56;57.98
59009;BME280;44794;42.652;23.318;2023-04-08T06:36:06;94670.78;;;10.11;55.59
59009;BME280;44794;42.652;23.318;2023-04-08T06:38:32;94677.91;;;10.20;54.16
59009;BME280;44794;42.652;23.318;2023-04-08T06:41:07;94674.69;;;10.29;54.06
59009;BME280;44794;42.652;23.318;2023-04-08T06:43:33;94673.81;;;10.05;54.50
59009;BME280;44794;42.652;23.318;2023-04-08T06:45:59;94680.97;;;10.02;54.54
59009;BME280;44794;42.652;23.318;2023-04-08T06:48:25;94679.28;;;9.53;56.82
59009;BME280;44794;42.652;23.318;2023-04-08T06:50:57;94680.72;;;9.32;57.70
59009;BME280;44794;42.652;23.318;2023-04-08T06:53:23;94677.69;;;9.13;58.14
59009;BME280;44794;42.652;23.318;2023-04-08T06:55:49;94681.63;;;9.06;58.56
59009;BME280;44794;42.652;23.318;2023-04-08T06:58:14;94674.28;;;9.12;59.20
59009;BME280;44794;42.652;23.318;2023-04-08T07:00:41;94672.97;;;9.32;59.55
59009;BME280;44794;42.652;23.318;2023-04-08T07:03:06;94682.50;;;9.44;59.01
59009;BME280;44794;42.652;23.318;2023-04-08T07:05:31;94683.53;;;9.41;58.26
59009;BME280;44794;42.652;23.318;2023-04-08T07:07:59;94666.94;;;9.44;58.71
59009;BME280;44794;42.652;23.318;2023-04-08T07:10:25;94680.19;;;9.64;58.65
59009;BME280;44794;42.652;23.318;2023-04-08T07:12:50;94674.91;;;9.41;58.20
59009;BME280;44794;42.652;23.318;2023-04-08T07:15:16;94679.78;;;9.70;59.05
59009;BME280;44794;42.652;23.318;2023-04-08T07:17:42;94686.94;;;9.54;58.41
59009;BME280;44794;42.652;23.318;2023-04-08T07:20:07;94690.16;;;9.33;58.86
59009;BME280;44794;42.652;23.318;2023-04-08T07:22:33;94689.94;;;9.23;59.84
59009;BME280;44794;42.652;23.318;2023-04-08T07:24:58;94690.75;;;9.11;61.07
59009;BME280;44794;42.652;23.318;2023-04-08T07:27:24;94686.00;;;9.30;60.79
59009;BME280;44794;42.652;23.318;2023-04-08T07:29:53;94690.69;;;9.50;59.80
59009;BME280;44794;42.652;23.318;2023-04-08T07:32:19;94696.19;;;9.46;59.78
59009;BME280;44794;42.652;23.318;2023-04-08T07:34:45;94692.50;;;9.85;58.72
59009;BME280;44794;42.652;23.318;2023-04-08T07:37:10;94686.34;;;10.11;58.27
59009;BME280;44794;42.652;23.318;2023-04-08T07:39:36;94689.88;;;10.69;57.39
59009;BME280;44794;42.652;23.318;2023-04-08T07:42:01;94700.03;;;10.72;54.85
59009;BME280;44794;42.652;23.318;2023-04-08T07:44:26;94704.84;;;10.66;55.17
59009;BME280;44794;42.652;23.318;2023-04-08T07:46:52;94708.91;;;10.81;54.88
59009;BME280;44794;42.652;23.318;2023-04-08T07:49:17;94705.44;;;10.93;54.52
59009;BME280;44794;42.652;23.318;2023-04-08T07:51:43;94705.41;;;11.16;53.99
59009;BME280;44794;42.652;23.318;2023-04-08T07:54:08;94711.59;;;11.03;54.26
59009;BME280;44794;42.652;23.318;2023-04-08T07:56:41;94714.41;;;11.34;54.03
59009;BME280;44794;42.652;23.318;2023-04-08T07:59:09;94720.13;;;11.39;53.44
59009;BME280;44794;42.652;23.318;2023-04-08T08:01:34;94723.66;;;11.49;52.05
59009;BME280;44794;42.652;23.318;2023-04-08T08:04:00;94733.78;;;11.64;50.83
59009;BME280;44794;42.652;23.318;2023-04-08T08:06:26;94734.06;;;11.49;51.76
59009;BME280;44794;42.652;23.318;2023-04-08T08:08:56;94729.31;;;11.88;51.32
59009;BME280;44794;42.652;23.318;2023-04-08T08:11:22;94728.88;;;12.05;50.84
59009;BME280;44794;42.652;23.318;2023-04-08T08:13:48;94731.47;;;12.05;50.99
59009;BME280;44794;42.652;23.318;2023-04-08T08:16:13;94719.34;;;11.71;51.80
59009;BME280;44794;42.652;23.318;2023-04-08T08:18:39;94725.03;;;12.20;50.80
59009;BME280;44794;42.652;23.318;2023-04-08T08:21:05;94729.56;;;12.18;50.25
59009;BME280;44794;42.652;23.318;2023-04-08T08:23:31;94730.34;;;11.75;51.33
59009;BME280;44794;42.652;23.318;2023-04-08T08:26:01;94732.41;;;12.04;51.31
59009;BME280;44794;42.652;23.318;2023-04-08T08:28:27;94727.06;;;11.84;51.34
59009;BME280;44794;42.652;23.318;2023-04-08T08:30:52;94729.75;;;11.60;52.41
59009;BME280;44794;42.652;23.318;2023-04-08T08:33:18;94732.25;;;11.62;51.92
59009;BME280;44794;42.652;23.318;2023-04-08T08:35:43;94730.25;;;11.87;51.17
59009;BME280;44794;42.652;23.318;2023-04-08T08:38:09;94730.75;;;12.25;50.31
59009;BME280;44794;42.652;23.318;2023-04-08T08:40:34;94730.63;;;12.79;49.12
59009;BME280;44794;42.652;23.318;2023-04-08T08:42:59;94727.53;;;12.96;48.13
59009;BME280;44794;42.652;23.318;2023-04-08T08:45:25;94726.84;;;12.94;48.13
59009;BME280;44794;42.652;23.318;2023-04-08T08:47:51;94720.53;;;12.44;49.69
59009;BME280;44794;42.652;23.318;2023-04-08T08:50:17;94723.81;;;12.57;49.27
59009;BME280;44794;42.652;23.318;2023-04-08T08:52:50;94721.31;;;12.66;48.79
59009;BME280;44794;42.652;23.318;2023-04-08T08:55:20;94731.19;;;12.52;49.35
59009;BME280;44794;42.652;23.318;2023-04-08T08:57:49;94730.66;;;12.69;49.40
59009;BME280;44794;42.652;23.318;2023-04-08T09:00:15;94728.56;;;12.52;49.86
59009;BME280;44794;42.652;23.318;2023-04-08T09:02:42;94732.06;;;12.08;51.27
59009;BME280;44794;42.652;23.318;2023-04-08T09:05:07;94730.25;;;12.31;51.72
59009;BME280;44794;42.652;23.318;2023-04-08T09:07:37;94730.72;;;12.47;51.18
59009;BME280;44794;42.652;23.318;2023-04-08T09:10:06;94733.59;;;11.89;52.11
59009;BME280;44794;42.652;23.318;2023-04-08T09:12:31;94727.91;;;11.95;52.42
59009;BME280;44794;42.652;23.318;2023-04-08T09:15:07;94727.44;;;12.12;53.10
59009;BME280;44794;42.652;23.318;2023-04-08T09:17:34;94726.72;;;11.77;53.87
59009;BME280;44794;42.652;23.318;2023-04-08T09:20:18;94724.69;;;12.02;54.28
59009;BME280;44794;42.652;23.318;2023-04-08T09:22:56;94718.75;;;12.44;53.34
59009;BME280;44794;42.652;23.318;2023-04-08T09:25:27;94722.41;;;12.42;51.81
59009;BME280;44794;42.652;23.318;2023-04-08T09:27:53;94717.00;;;11.79;52.94
59009;BME280;44794;42.652;23.318;2023-04-08T09:30:22;94715.00;;;11.83;53.43
59009;BME280;44794;42.652;23.318;2023-04-08T09:32:56;94709.50;;;12.62;51.75
59009;BME280;44794;42.652;23.318;2023-04-08T09:35:23;94709.13;;;13.09;49.58
59009;BME280;44794;42.652;23.318;2023-04-08T09:37:49;94711.47;;;13.32;48.20
59009;BME280;44794;42.652;23.318;2023-04-08T09:40:15;94709.38;;;13.87;47.94
59009;BME280;44794;42.652;23.318;2023-04-08T09:42:48;94719.16;;;13.65;46.94
59009;BME280;44794;42.652;23.318;2023-04-08T09:45:17;94705.19;;;13.75;47.83
59009;BME280;44794;42.652;23.318;2023-04-08T09:47:54;94698.97;;;13.97;47.18
59009;BME280;44794;42.652;23.318;2023-04-08T09:50:27;94701.13;;;13.62;47.99
59009;BME280;44794;42.652;23.318;2023-04-08T09:53:19;94698.25;;;13.24;47.79
59009;BME280;44794;42.652;23.318;2023-04-08T09:55:54;94689.88;;;12.89;49.04
59009;BME280;44794;42.652;23.318;2023-04-08T09:58:27;94691.66;;;12.89;51.15
59009;BME280;44794;42.652;23.318;2023-04-08T10:00:53;94688.75;;;13.03;47.96
59009;BME280;44794;42.652;23.318;2023-04-08T10:03:28;94694.19;;;13.11;50.11
59009;BME280;44794;42.652;23.318;2023-04-08T10:05:55;94692.63;;;12.77;49.51
59009;BME280;44794;42.652;23.318;2023-04-08T10:08:23;94693.38;;;11.82;50.46
59009;BME280;44794;42.652;23.318;2023-04-08T10:10:49;94690.50;;;11.74;51.13
59009;BME280;44794;42.652;23.318;2023-04-08T10:13:15;94698.31;;;12.18;51.33
59009;BME280;44794;42.652;23.318;2023-04-08T10:15:41;94683.38;;;12.20;51.51
59009;BME280;44794;42.652;23.318;2023-04-08T10:23:12;94677.75;;;11.93;52.85
59009;BME280;44794;42.652;23.318;2023-04-08T10:25:42;94683.28;;;11.89;53.78
59009;BME280;44794;42.652;23.318;2023-04-08T10:31:01;94681.38;;;12.23;54.80
59009;BME280;44794;42.652;23.318;2023-04-08T10:33:33;94674.63;;;12.32;54.67
59009;BME280;44794;42.652;23.318;2023-04-08T10:36:09;94677.84;;;12.13;53.16
59009;BME280;44794;42.652;23.318;2023-04-08T10:38:36;94677.16;;;11.79;55.29
59009;BME280;44794;42.652;23.318;2023-04-08T10:41:03;94675.03;;;11.84;55.95
59009;BME280;44794;42.652;23.318;2023-04-08T10:43:35;94669.00;;;11.94;60.56
59009;BME280;44794;42.652;23.318;2023-04-08T10:46:01;94650.66;;;12.06;59.33
59009;BME280;44794;42.652;23.318;2023-04-08T10:48:27;94651.19;;;12.21;58.73
59009;BME280;44794;42.652;23.318;2023-04-08T10:51:00;94657.81;;;12.78;56.65
59009;BME280;44794;42.652;23.318;2023-04-08T10:53:35;94656.97;;;12.77;51.05
59009;BME280;44794;42.652;23.318;2023-04-08T10:56:12;94669.63;;;12.82;51.86
59009;BME280;44794;42.652;23.318;2023-04-08T10:58:54;94661.44;;;12.86;50.50
59009;BME280;44794;42.652;23.318;2023-04-08T11:01:23;94648.56;;;13.05;50.47
59009;BME280;44794;42.652;23.318;2023-04-08T11:03:49;94644.56;;;13.01;51.11
59009;BME280;44794;42.652;23.318;2023-04-08T11:06:15;94649.34;;;13.17;51.19
59009;BME280;44794;42.652;23.318;2023-04-08T11:08:41;94644.59;;;12.90;50.11
59009;BME280;44794;42.652;23.318;2023-04-08T11:11:09;94641.19;;;13.10;50.41
59009;BME280;44794;42.652;23.318;2023-04-08T11:13:38;94650.00;;;13.09;49.89
59009;BME280;44794;42.652;23.318;2023-04-08T11:16:05;94647.69;;;12.84;49.16
59009;BME280;44794;42.652;23.318;2023-04-08T11:18:33;94638.09;;;12.85;49.36
59009;BME280;44794;42.652;23.318;2023-04-08T11:20:59;94634.88;;;12.61;48.95
59009;BME280;44794;42.652;23.318;2023-04-08T11:23:24;94635.28;;;12.88;49.46
59009;BME280;44794;42.652;23.318;2023-04-08T11:25:50;94629.69;;;13.33;48.05
59009;BME280;44794;42.652;23.318;2023-04-08T11:28:16;94625.75;;;13.18;47.48
59009;BME280;44794;42.652;23.318;2023-04-08T11:30:42;94616.06;;;13.30;48.21
59009;BME280;44794;42.652;23.318;2023-04-08T11:33:08;94621.69;;;13.55;47.53
59009;BME280;44794;42.652;23.318;2023-04-08T11:35:41;94622.81;;;13.32;48.18
59009;BME280;44794;42.652;23.318;2023-04-08T11:38:10;94624.03;;;12.76;47.48
59009;BME280;44794;42.652;23.318;2023-04-08T11:40:36;94621.06;;;12.50;48.01
59009;BME280;44794;42.652;23.318;2023-04-08T11:43:09;94620.91;;;12.62;47.15
59009;BME280;44794;42.652;23.318;2023-04-08T11:45:38;94608.06;;;13.01;49.43
59009;BME280;44794;42.652;23.318;2023-04-08T11:48:12;94608.06;;;13.22;46.95
59009;BME280;44794;42.652;23.318;2023-04-08T11:50:38;94605.38;;;13.33;47.15
59009;BME280;44794;42.652;23.318;2023-04-08T11:53:21;94600.06;;;13.44;46.75
59009;BME280;44794;42.652;23.318;2023-04-08T11:55:49;94602.84;;;13.72;47.24
59009;BME280;44794;42.652;23.318;2023-04-08T11:58:14;94600.72;;;13.66;45.65
59009;BME280;44794;42.652;23.318;2023-04-08T12:00:40;94592.28;;;14.13;46.27
59009;BME280;44794;42.652;23.318;2023-04-08T12:03:07;94595.41;;;14.07;45.49
59009;BME280;44794;42.652;23.318;2023-04-08T12:05:32;94593.44;;;13.99;45.65
59009;BME280;44794;42.652;23.318;2023-04-08T12:07:58;94587.97;;;13.63;45.57
59009;BME280;44794;42.652;23.318;2023-04-08T12:10:23;94573.91;;;13.04;45.87
59009;BME280;44794;42.652;23.318;2023-04-08T12:12:51;94582.63;;;13.14;46.67
59009;BME280;44794;42.652;23.318;2023-04-08T12:15:17;94581.88;;;13.23;46.05
59009;BME280;44794;42.652;23.318;2023-04-08T12:17:43;94570.44;;;13.24;45.75
59009;BME280;44794;42.652;23.318;2023-04-08T12:20:10;94582.44;;;13.06;46.87
59009;BME280;44794;42.652;23.318;2023-04-08T12:22:35;94571.31;;;13.04;47.67
59009;BME280;44794;42.652;23.318;2023-04-08T12:25:01;94564.72;;;13.00;48.77
59009;BME280;44794;42.652;23.318;2023-04-08T12:27:28;94563.47;;;12.84;49.01
59009;BME280;44794;42.652;23.318;2023-04-08T12:29:54;94558.75;;;12.58;48.12
59009;BME280;44794;42.652;23.318;2023-04-08T12:32:20;94564.16;;;12.66;49.23
59009;BME280;44794;42.652;23.318;2023-04-08T12:34:45;94565.31;;;12.73;49.22
59009;BME280;44794;42.652;23.318;2023-04-08T12:37:11;94557.38;;;12.43;49.55
59009;BME280;44794;42.652;23.318;2023-04-08T12:39:37;94558.81;;;12.47;48.89
59009;BME280;44794;42.652;23.318;2023-04-08T12:42:02;94566.38;;;12.50;48.04
59009;BME280;44794;42.652;23.318;2023-04-08T12:44:28;94558.53;;;12.50;48.48
59009;BME280;44794;42.652;23.318;2023-04-08T12:46:54;94563.53;;;12.21;48.38
59009;BME280;44794;42.652;23.318;2023-04-08T12:49:20;94563.34;;;12.34;48.72
59009;BME280;44794;42.652;23.318;2023-04-08T12:51:46;94559.69;;;12.36;48.35
59009;BME280;44794;42.652;23.318;2023-04-08T12:54:12;94558.75;;;12.26;49.24
59009;BME280;44794;42.652;23.318;2023-04-08T12:56:37;94555.41;;;12.04;50.35
59009;BME280;44794;42.652;23.318;2023-04-08T12:59:03;94561.31;;;12.06;49.39
59009;BME280;44794;42.652;23.318;2023-04-08T13:01:29;94564.34;;;11.69;49.43